createdAt,value
2017-12-02T00:01:58.252Z,2.27
2017-12-02T00:04:25.870Z,3.50
2017-12-02T00:06:53.586Z,3.57
2017-12-02T00:09:22.079Z,1.43
2017-12-02T00:11:50.639Z,3.07
2017-12-02T00:14:19.269Z,1.67
2017-12-02T00:16:47.855Z,2.30
2017-12-02T00:19:15.491Z,5.27
2017-12-02T00:21:43.191Z,2.07
2017-12-02T00:24:10.844Z,3.37
2017-12-02T00:26:38.497Z,3.87
2017-12-02T00:29:06.179Z,3.43
2017-12-02T00:31:33.803Z,4.33
2017-12-02T00:34:02.254Z,2.60
2017-12-02T00:36:29.950Z,8.93
2017-12-02T00:38:58.394Z,2.83
2017-12-02T00:41:26.014Z,4.13
2017-12-02T00:43:53.691Z,4.73
2017-12-02T00:46:22.159Z,3.93
2017-12-02T00:48:49.790Z,2.77
2017-12-02T00:51:17.480Z,4.60
2017-12-02T00:53:45.103Z,3.07
2017-12-02T00:56:12.737Z,4.67
2017-12-02T00:58:40.419Z,3.63
2017-12-02T01:01:08.044Z,2.77
2017-12-02T01:03:35.668Z,3.43
2017-12-02T01:06:03.362Z,3.83
2017-12-02T01:08:30.989Z,3.53
2017-12-02T01:10:59.541Z,4.43
2017-12-02T01:16:06.297Z,5.28
2017-12-02T01:18:33.992Z,3.13
2017-12-02T01:21:01.621Z,3.10
2017-12-02T01:23:29.244Z,1.73
2017-12-02T01:25:57.311Z,2.77
2017-12-02T01:28:24.937Z,3.20
2017-12-02T01:30:52.560Z,6.83
2017-12-02T01:33:21.024Z,2.10
2017-12-02T01:35:50.150Z,2.33
2017-12-02T01:38:17.785Z,2.33
2017-12-02T01:40:45.466Z,2.80
2017-12-02T01:43:13.090Z,4.27
2017-12-02T01:45:40.707Z,2.40
2017-12-02T01:48:09.248Z,4.93
2017-12-02T01:50:37.408Z,2.00
2017-12-02T01:53:06.001Z,4.30
2017-12-02T01:55:35.574Z,3.60
2017-12-02T01:58:03.202Z,1.93
2017-12-02T02:00:30.829Z,2.90
2017-12-02T02:02:59.420Z,3.00
2017-12-02T02:05:27.052Z,2.63
2017-12-02T02:07:55.553Z,2.27
2017-12-02T02:10:23.231Z,4.47
2017-12-02T02:12:50.872Z,3.13
2017-12-02T02:15:18.486Z,2.57
2017-12-02T02:17:47.125Z,2.57
2017-12-02T02:20:15.588Z,4.00
2017-12-02T02:22:43.206Z,2.13
2017-12-02T02:25:10.880Z,3.43
2017-12-02T02:27:38.522Z,3.37
2017-12-02T02:30:06.153Z,2.73
2017-12-02T02:32:34.574Z,3.50
2017-12-02T02:35:02.215Z,1.60
2017-12-02T02:37:30.685Z,1.40
2017-12-02T02:42:38.397Z,1.70
2017-12-02T02:45:06.093Z,2.70
2017-12-02T02:47:34.567Z,5.67
2017-12-02T02:50:02.201Z,1.23
2017-12-02T02:52:30.815Z,5.47
2017-12-02T02:54:59.307Z,9.63
2017-12-02T02:57:27.623Z,3.50
2017-12-02T02:59:55.336Z,3.40
2017-12-02T03:02:22.968Z,2.67
2017-12-02T03:04:50.589Z,2.77
2017-12-02T03:07:19.525Z,2.00
2017-12-02T03:09:47.167Z,4.00
2017-12-02T03:12:15.715Z,2.67
2017-12-02T03:14:43.396Z,2.87
2017-12-02T03:17:11.015Z,1.90
2017-12-02T03:19:38.644Z,1.97
2017-12-02T03:22:06.342Z,2.57
2017-12-02T03:24:34.353Z,3.30
2017-12-02T03:27:01.972Z,2.40
2017-12-02T03:29:30.625Z,3.23
2017-12-02T03:31:58.243Z,3.47
2017-12-02T03:34:25.867Z,3.40
2017-12-02T03:36:54.493Z,1.93
2017-12-02T03:39:23.078Z,1.77
2017-12-02T03:41:50.694Z,1.77
2017-12-02T03:44:18.372Z,1.87
2017-12-02T03:46:45.997Z,1.43
2017-12-02T03:49:14.331Z,2.43
2017-12-02T03:51:42.074Z,1.23
2017-12-02T03:56:50.874Z,1.95
2017-12-02T03:59:19.310Z,1.77
2017-12-02T04:01:46.931Z,4.43
2017-12-02T04:04:14.617Z,3.33
2017-12-02T04:06:42.244Z,2.60
2017-12-02T04:09:10.764Z,5.23
2017-12-02T04:11:38.435Z,3.20
2017-12-02T04:14:06.927Z,2.70
2017-12-02T04:16:34.555Z,2.97
2017-12-02T04:19:03.184Z,3.40
2017-12-02T04:21:31.659Z,5.53
2017-12-02T04:23:59.288Z,3.90
2017-12-02T04:26:26.971Z,3.80
2017-12-02T04:28:54.589Z,3.27
2017-12-02T04:31:22.212Z,5.63
2017-12-02T04:33:49.904Z,2.60
2017-12-02T04:36:18.402Z,4.47
2017-12-02T04:38:46.021Z,6.90
2017-12-02T04:41:13.718Z,1.83
2017-12-02T04:43:41.338Z,4.87
2017-12-02T04:46:08.959Z,4.47
2017-12-02T04:48:36.649Z,4.20
2017-12-02T04:51:04.268Z,3.40
2017-12-02T04:53:32.838Z,2.00
2017-12-02T04:56:01.370Z,8.47
2017-12-02T04:58:29.004Z,4.20
2017-12-02T05:00:56.622Z,4.27
2017-12-02T05:03:25.117Z,2.87
2017-12-02T05:05:52.740Z,5.40
2017-12-02T05:08:21.463Z,6.57
2017-12-02T05:10:50.333Z,5.97
2017-12-02T05:13:16.051Z,1.83
2017-12-02T05:15:43.674Z,3.37
2017-12-02T05:18:11.352Z,2.70
2017-12-02T05:23:18.160Z,3.78
2017-12-02T05:25:45.777Z,2.93
2017-12-02T05:28:13.402Z,3.20
2017-12-02T05:30:41.083Z,2.30
2017-12-02T05:33:08.741Z,5.13
2017-12-02T05:35:36.376Z,5.73
2017-12-02T05:38:04.053Z,4.33
2017-12-02T05:40:32.485Z,3.50
2017-12-02T05:43:03.142Z,20.30
2017-12-02T05:45:31.799Z,3.00
2017-12-02T05:47:59.408Z,3.50
2017-12-02T05:50:27.015Z,8.17
2017-12-02T05:52:54.719Z,3.07
2017-12-02T05:55:22.336Z,5.27
2017-12-02T05:57:49.965Z,5.07
2017-12-02T06:00:17.686Z,8.13
2017-12-02T06:02:45.311Z,4.87
2017-12-02T06:05:12.931Z,6.93
2017-12-02T06:07:40.640Z,5.33
2017-12-02T06:10:12.218Z,3.03
2017-12-02T06:12:39.839Z,10.17
2017-12-02T06:15:08.239Z,5.63
2017-12-02T06:17:35.863Z,3.13
2017-12-02T06:20:04.208Z,4.20
2017-12-02T06:22:31.891Z,5.30
2017-12-02T06:25:01.271Z,2.40
2017-12-02T06:27:28.890Z,2.90
2017-12-02T06:29:56.601Z,2.87
2017-12-02T06:32:24.217Z,2.30
2017-12-02T06:34:53.883Z,4.37
2017-12-02T06:37:21.628Z,4.17
2017-12-02T06:39:49.183Z,3.30
2017-12-02T06:42:16.794Z,2.57
2017-12-02T06:47:23.452Z,5.57
2017-12-02T06:49:51.149Z,3.33
2017-12-02T06:52:18.765Z,3.33
2017-12-02T06:54:46.392Z,5.90
2017-12-02T06:57:14.107Z,2.77
2017-12-02T06:59:41.690Z,2.10
2017-12-02T07:02:09.318Z,13.37
2017-12-02T07:04:37.022Z,11.40
2017-12-02T07:09:47.283Z,8.07
2017-12-02T07:12:14.933Z,8.90
2017-12-02T07:14:42.551Z,6.37
2017-12-02T07:17:10.228Z,4.23
2017-12-02T07:19:37.857Z,5.47
2017-12-02T07:22:05.484Z,8.33
2017-12-02T07:24:33.176Z,4.67
2017-12-02T07:27:01.149Z,6.63
2017-12-02T07:29:28.567Z,3.00
2017-12-02T07:31:56.256Z,4.43
2017-12-02T07:34:23.870Z,4.37
2017-12-02T07:36:51.492Z,4.43
2017-12-02T07:39:19.211Z,8.07
2017-12-02T07:41:47.025Z,7.27
2017-12-02T07:44:14.640Z,7.60
2017-12-02T07:46:42.319Z,8.30
2017-12-02T07:49:10.892Z,5.63
2017-12-02T07:51:38.571Z,4.00
2017-12-02T07:54:07.093Z,7.77
2017-12-02T07:56:34.713Z,5.17
2017-12-02T07:59:02.875Z,3.47
2017-12-02T08:01:30.656Z,3.97
2017-12-02T08:03:58.282Z,6.93
2017-12-02T08:06:25.895Z,5.60
2017-12-02T08:08:53.579Z,5.00
2017-12-02T08:11:22.206Z,5.53
2017-12-02T08:13:49.826Z,5.90
2017-12-02T08:16:17.507Z,4.17
2017-12-02T08:18:45.126Z,6.40
2017-12-02T08:21:12.745Z,7.47
2017-12-02T08:23:40.708Z,5.63
2017-12-02T08:26:08.347Z,3.93
2017-12-02T08:28:36.853Z,7.03
2017-12-02T08:33:43.567Z,7.45
2017-12-02T08:36:12.218Z,4.47
2017-12-02T08:38:39.832Z,3.67
2017-12-02T08:41:07.479Z,5.13
2017-12-02T08:43:35.166Z,26.33
2017-12-02T08:46:02.788Z,5.90
2017-12-02T08:48:31.249Z,5.77
2017-12-02T08:50:58.910Z,13.37
2017-12-02T08:53:26.533Z,7.20
2017-12-02T08:55:54.181Z,6.53
2017-12-02T08:58:22.984Z,5.13
2017-12-02T09:00:50.611Z,7.47
2017-12-02T09:03:19.050Z,7.97
2017-12-02T09:05:46.736Z,11.20
2017-12-02T09:08:17.807Z,6.10
2017-12-02T09:10:45.432Z,7.23
2017-12-02T09:13:14.178Z,8.93
2017-12-02T09:15:41.848Z,6.67
2017-12-02T09:18:10.420Z,4.47
2017-12-02T09:20:39.049Z,6.40
2017-12-02T09:23:06.680Z,5.33
2017-12-02T09:28:15.257Z,7.35
2017-12-02T09:30:42.882Z,6.87
2017-12-02T09:33:10.491Z,6.17
2017-12-02T09:35:38.168Z,3.70
2017-12-02T09:38:07.113Z,5.60
2017-12-02T09:40:35.468Z,6.93
2017-12-02T09:43:03.499Z,7.23
2017-12-02T09:45:31.125Z,4.13
2017-12-02T09:47:58.749Z,5.97
2017-12-02T09:50:27.238Z,6.13
2017-12-02T09:52:54.860Z,5.67
2017-12-02T09:55:22.480Z,7.70
2017-12-02T09:57:50.302Z,5.30
2017-12-02T10:00:22.739Z,5.93
2017-12-02T10:02:50.414Z,5.07
2017-12-02T10:05:18.964Z,4.33
2017-12-02T10:07:48.961Z,4.27
2017-12-02T10:10:16.614Z,4.93
2017-12-02T10:12:44.236Z,5.57
2017-12-02T10:15:11.844Z,4.10
2017-12-02T10:17:40.489Z,8.97
2017-12-02T10:20:08.135Z,7.03
2017-12-02T10:22:35.763Z,6.77
2017-12-02T10:25:04.244Z,4.70
2017-12-02T10:27:31.869Z,5.23
2017-12-02T10:30:00.429Z,4.23
2017-12-02T10:32:28.092Z,5.70
2017-12-02T10:34:55.708Z,5.80
2017-12-02T10:40:03.413Z,6.15
2017-12-02T10:42:31.036Z,6.37
2017-12-02T10:44:58.641Z,4.87
2017-12-02T10:47:26.463Z,5.67
2017-12-02T10:49:54.078Z,5.80
2017-12-02T10:52:23.716Z,6.90
2017-12-02T10:54:51.415Z,10.30
2017-12-02T10:57:19.971Z,13.83
2017-12-02T10:59:47.583Z,8.47
2017-12-02T11:02:15.258Z,9.93
2017-12-02T11:04:42.881Z,7.83
2017-12-02T11:07:10.517Z,7.03
2017-12-02T11:09:38.190Z,7.13
2017-12-02T11:12:05.802Z,7.40
2017-12-02T11:14:33.424Z,7.33
2017-12-02T11:17:02.050Z,6.27
2017-12-02T11:19:29.667Z,9.07
2017-12-02T11:21:58.255Z,6.77
2017-12-02T11:24:26.134Z,6.73
2017-12-02T11:26:53.773Z,7.20
2017-12-02T11:29:21.390Z,6.70
2017-12-02T11:31:49.061Z,6.57
2017-12-02T11:34:16.674Z,6.80
2017-12-02T11:39:23.775Z,8.18
2017-12-02T11:41:51.401Z,7.17
2017-12-02T11:44:19.830Z,3.83
2017-12-02T11:46:47.504Z,6.40
2017-12-02T11:49:15.127Z,6.40
2017-12-02T11:51:42.759Z,7.43
2017-12-02T11:54:10.605Z,6.57
2017-12-02T11:56:38.243Z,6.23
2017-12-02T11:59:06.693Z,7.63
2017-12-02T12:01:34.380Z,6.87
2017-12-02T12:04:02.210Z,6.30
2017-12-02T12:06:29.823Z,6.60
2017-12-02T12:08:57.503Z,11.23
2017-12-02T12:11:25.294Z,5.37
2017-12-02T12:13:52.745Z,8.07
2017-12-02T12:16:20.416Z,6.50
2017-12-02T12:18:48.035Z,7.50
2017-12-02T12:21:15.656Z,4.90
2017-12-02T12:23:46.212Z,7.77
2017-12-02T12:26:13.835Z,6.50
2017-12-02T12:28:41.452Z,6.17
2017-12-02T12:31:09.126Z,8.83
2017-12-02T12:33:36.758Z,5.63
2017-12-02T12:36:04.386Z,6.40
2017-12-02T12:38:32.466Z,6.57
2017-12-02T12:41:00.086Z,6.80
2017-12-02T12:43:27.714Z,4.03
2017-12-02T12:45:55.769Z,4.90
2017-12-02T12:48:23.355Z,7.67
2017-12-02T12:50:51.260Z,6.27
2017-12-02T12:53:20.347Z,6.10
2017-12-02T12:55:48.491Z,6.90
2017-12-02T13:00:59.497Z,11.27
2017-12-02T13:03:27.309Z,7.83
2017-12-02T13:05:54.928Z,7.00
2017-12-02T13:08:22.603Z,11.23
2017-12-02T13:10:50.231Z,7.37
2017-12-02T13:13:17.859Z,10.63
2017-12-02T13:15:45.543Z,7.07
2017-12-02T13:18:13.994Z,7.40
2017-12-02T13:20:42.557Z,7.50
2017-12-02T13:23:10.407Z,11.63
2017-12-02T13:25:38.023Z,9.70
2017-12-02T13:28:05.623Z,8.77
2017-12-02T13:30:34.071Z,8.80
2017-12-02T13:33:01.692Z,6.57
2017-12-02T13:35:29.304Z,9.37
2017-12-02T13:37:57.276Z,12.47
2017-12-02T13:40:24.906Z,11.23
2017-12-02T13:42:52.529Z,6.53
2017-12-02T13:45:21.498Z,10.57
2017-12-02T13:47:49.120Z,12.27
2017-12-02T13:50:16.737Z,6.43
2017-12-02T13:52:44.420Z,10.10
2017-12-02T13:57:51.053Z,8.60
2017-12-02T14:00:18.691Z,7.20
2017-12-02T14:02:46.304Z,10.40
2017-12-02T14:05:13.988Z,7.17
2017-12-02T14:07:42.367Z,9.53
2017-12-02T14:10:10.940Z,6.93
2017-12-02T14:12:38.769Z,10.30
2017-12-02T14:15:06.393Z,8.57
2017-12-02T14:17:34.024Z,7.57
2017-12-02T14:20:02.675Z,7.57
2017-12-02T14:22:35.257Z,8.70
2017-12-02T14:25:03.952Z,8.23
2017-12-02T14:27:31.585Z,10.60
2017-12-02T14:29:59.203Z,11.57
2017-12-02T14:32:26.891Z,7.40
2017-12-02T14:34:54.515Z,10.07
2017-12-02T14:37:22.165Z,8.13
2017-12-02T14:39:49.849Z,10.53
2017-12-02T14:42:19.833Z,6.00
2017-12-02T14:44:45.652Z,6.60
2017-12-02T14:47:14.610Z,11.13
2017-12-02T14:49:43.045Z,7.27
2017-12-02T14:52:11.488Z,7.17
2017-12-02T14:54:39.434Z,5.90
2017-12-02T14:57:07.999Z,7.33
2017-12-02T14:59:36.598Z,7.33
2017-12-02T15:02:04.279Z,6.27
2017-12-02T15:04:32.729Z,8.07
2017-12-02T15:07:01.379Z,8.53
2017-12-02T15:09:29.777Z,6.77
2017-12-02T15:11:58.231Z,7.57
2017-12-02T15:14:25.867Z,8.53
2017-12-02T15:16:54.837Z,10.63
2017-12-02T15:19:22.602Z,8.03
2017-12-02T15:24:30.339Z,8.02
2017-12-02T15:26:59.653Z,8.40
2017-12-02T15:29:27.272Z,6.07
2017-12-02T15:31:55.110Z,8.53
2017-12-02T15:34:23.648Z,8.60
2017-12-02T15:36:51.281Z,11.50
2017-12-02T15:39:19.099Z,9.70
2017-12-02T15:41:46.738Z,12.17
2017-12-02T15:44:14.404Z,9.97
2017-12-02T15:46:42.963Z,8.73
2017-12-02T15:49:10.590Z,7.93
2017-12-02T15:51:38.229Z,9.70
2017-12-02T15:54:06.164Z,10.43
2017-12-02T15:56:33.794Z,11.23
2017-12-02T15:59:01.793Z,8.13
2017-12-02T16:01:29.634Z,9.37
2017-12-02T16:03:57.255Z,8.67
2017-12-02T16:06:24.874Z,8.93
2017-12-02T16:08:52.902Z,11.00
2017-12-02T16:11:20.526Z,9.43
2017-12-02T16:13:48.147Z,11.40
2017-12-02T16:16:16.030Z,8.70
2017-12-02T16:18:43.632Z,7.40
2017-12-02T16:21:11.272Z,14.37
2017-12-02T16:23:39.171Z,10.33
2017-12-02T16:26:07.519Z,8.03
2017-12-02T16:28:35.150Z,8.80
2017-12-02T16:31:03.940Z,7.03
2017-12-02T16:33:32.276Z,7.63
2017-12-02T16:36:00.759Z,19.10
2017-12-02T16:38:28.829Z,10.30
2017-12-02T16:40:56.444Z,9.77
2017-12-02T16:43:24.901Z,11.03
2017-12-02T16:45:54.148Z,6.40
2017-12-02T16:51:02.396Z,10.65
2017-12-02T16:53:30.018Z,19.43
2017-12-02T16:55:57.663Z,18.20
2017-12-02T16:58:25.359Z,8.77
2017-12-02T17:00:52.985Z,9.43
2017-12-02T17:06:02.766Z,9.32
2017-12-02T17:08:31.221Z,11.73
2017-12-02T17:10:58.860Z,12.50
2017-12-02T17:13:26.687Z,14.13
2017-12-02T17:15:54.327Z,11.90
2017-12-02T17:18:21.953Z,13.03
2017-12-02T17:20:50.044Z,13.37
2017-12-02T17:23:17.682Z,10.90
2017-12-02T17:25:46.480Z,8.30
2017-12-02T17:28:13.006Z,14.43
2017-12-02T17:30:41.682Z,16.33
2017-12-02T17:33:09.272Z,12.10
2017-12-02T17:35:37.098Z,13.67
2017-12-02T17:38:04.728Z,11.83
2017-12-02T17:40:32.360Z,12.47
2017-12-02T17:43:00.463Z,10.17
2017-12-02T17:45:28.492Z,13.50
2017-12-02T17:47:56.125Z,12.80
2017-12-02T17:50:24.979Z,13.13
2017-12-02T17:52:52.604Z,15.77
2017-12-02T17:55:20.226Z,12.87
2017-12-02T17:57:47.913Z,11.27
2017-12-02T18:00:15.547Z,14.23
2017-12-02T18:02:43.173Z,13.13
2017-12-02T18:05:11.803Z,13.33
2017-12-02T18:07:39.424Z,15.53
2017-12-02T18:10:07.056Z,13.70
2017-12-02T18:12:37.916Z,19.50
2017-12-02T18:15:05.580Z,9.87
2017-12-02T18:20:13.487Z,10.85
2017-12-02T18:25:20.523Z,11.82
2017-12-02T18:27:48.155Z,13.83
2017-12-02T18:30:15.786Z,14.97
2017-12-02T18:32:43.675Z,13.63
2017-12-02T18:35:11.302Z,13.73
2017-12-02T18:37:39.734Z,19.13
2017-12-02T18:40:08.808Z,18.93
2017-12-02T18:42:36.427Z,15.03
2017-12-02T18:45:04.068Z,14.53
2017-12-02T18:47:31.808Z,16.27
2017-12-02T18:50:00.377Z,16.00
2017-12-02T18:52:27.995Z,16.20
2017-12-02T18:54:55.833Z,14.07
2017-12-02T18:57:27.030Z,13.33
2017-12-02T18:59:54.659Z,13.47
2017-12-02T19:02:22.350Z,13.00
2017-12-02T19:04:49.983Z,19.77
2017-12-02T19:07:17.646Z,10.23
2017-12-02T19:09:45.707Z,14.60
2017-12-02T19:12:13.334Z,14.50
2017-12-02T19:14:41.786Z,11.47
2017-12-02T19:17:10.506Z,13.90
2017-12-02T19:19:39.060Z,9.93
2017-12-02T19:22:07.571Z,12.87
2017-12-02T19:24:35.258Z,11.47
2017-12-02T19:27:02.888Z,11.90
2017-12-02T19:29:30.518Z,14.27
2017-12-02T19:31:58.200Z,14.00
2017-12-02T19:34:25.834Z,11.23
2017-12-02T19:36:53.473Z,11.13
2017-12-02T19:39:22.110Z,12.80
2017-12-02T19:41:49.733Z,12.63
2017-12-02T19:44:18.882Z,12.33
2017-12-02T19:46:47.622Z,14.50
2017-12-02T19:51:54.534Z,14.07
2017-12-02T19:54:22.998Z,11.40
2017-12-02T19:56:50.618Z,12.60
2017-12-02T19:59:19.338Z,14.70
2017-12-02T20:01:47.857Z,10.23
2017-12-02T20:04:15.448Z,10.53
2017-12-02T20:06:43.274Z,10.93
2017-12-02T20:09:10.955Z,12.13
2017-12-02T20:11:38.583Z,10.93
2017-12-02T20:14:07.023Z,10.77
2017-12-02T20:16:34.683Z,10.40
2017-12-02T20:19:02.278Z,12.07
2017-12-02T20:21:29.967Z,9.93
2017-12-02T20:23:57.641Z,12.47
2017-12-02T20:26:25.268Z,10.57
2017-12-02T20:28:53.103Z,10.83
2017-12-02T20:31:20.728Z,13.20
2017-12-02T20:33:48.400Z,12.03
2017-12-02T20:36:16.104Z,11.50
2017-12-02T20:38:43.733Z,10.80
2017-12-02T20:41:11.367Z,10.77
2017-12-02T20:43:39.049Z,9.80
2017-12-02T20:46:07.635Z,11.50
2017-12-02T20:48:35.261Z,11.30
2017-12-02T20:51:03.121Z,12.07
2017-12-02T20:53:30.763Z,10.83
2017-12-02T20:55:58.384Z,12.53
2017-12-02T20:58:27.187Z,10.23
2017-12-02T21:00:54.831Z,10.10
2017-12-02T21:03:22.463Z,10.93
2017-12-02T21:05:50.323Z,10.57
2017-12-02T21:08:17.923Z,11.90
2017-12-02T21:10:45.564Z,11.07
2017-12-02T21:13:13.274Z,13.57
2017-12-02T21:18:20.345Z,10.48
2017-12-02T21:20:47.968Z,11.40
2017-12-02T21:23:15.595Z,12.53
2017-12-02T21:25:43.330Z,11.30
2017-12-02T21:28:10.947Z,9.43
2017-12-02T21:30:39.394Z,11.53
2017-12-02T21:33:07.227Z,8.47
2017-12-02T21:35:34.853Z,9.97
2017-12-02T21:38:02.488Z,10.63
2017-12-02T21:40:30.521Z,9.07
2017-12-02T21:42:58.153Z,11.97
2017-12-02T21:45:25.777Z,9.87
2017-12-02T21:47:53.592Z,12.37
2017-12-02T21:50:21.233Z,10.20
2017-12-02T21:52:48.860Z,10.93
2017-12-02T21:55:16.544Z,12.00
2017-12-02T21:57:44.177Z,12.60
2017-12-02T22:00:11.823Z,12.87
2017-12-02T22:02:39.772Z,12.87
2017-12-02T22:05:07.399Z,13.53
2017-12-02T22:07:35.024Z,22.87
2017-12-02T22:10:02.732Z,11.67
2017-12-02T22:12:30.386Z,13.50
2017-12-02T22:14:57.983Z,9.83
2017-12-02T22:17:26.068Z,10.07
2017-12-02T22:22:44.088Z,8.40
2017-12-02T22:25:17.426Z,11.40
2017-12-02T22:27:45.273Z,9.17
2017-12-02T22:30:14.266Z,8.03
2017-12-02T22:32:41.882Z,9.53
2017-12-02T22:35:09.731Z,8.70
2017-12-02T22:37:37.493Z,7.37
2017-12-02T22:40:05.319Z,8.40
2017-12-02T22:42:32.952Z,7.43
2017-12-02T22:45:00.589Z,6.50
2017-12-02T22:47:28.228Z,6.83
2017-12-02T22:49:56.086Z,8.27
2017-12-02T22:52:23.803Z,9.20
2017-12-02T22:54:51.607Z,8.27
2017-12-02T22:57:19.417Z,8.17
2017-12-02T22:59:47.005Z,7.57
2017-12-02T23:02:14.654Z,7.17
2017-12-02T23:04:42.476Z,8.20
2017-12-02T23:07:10.104Z,10.97
2017-12-02T23:09:37.725Z,8.33
2017-12-02T23:12:05.431Z,6.73
2017-12-02T23:14:33.062Z,7.73
2017-12-02T23:17:00.683Z,7.73
2017-12-02T23:19:28.513Z,6.97
2017-12-02T23:21:56.140Z,8.03
2017-12-02T23:24:23.760Z,8.97
2017-12-02T23:26:52.151Z,8.50
2017-12-02T23:32:00.698Z,7.30
2017-12-02T23:34:28.334Z,8.57
2017-12-02T23:36:55.959Z,6.57
2017-12-02T23:39:23.637Z,9.30
2017-12-02T23:41:51.263Z,7.87
2017-12-02T23:44:18.891Z,10.93
2017-12-02T23:46:46.750Z,8.37
2017-12-02T23:49:14.376Z,7.97
2017-12-02T23:51:42.009Z,11.17
2017-12-02T23:54:09.685Z,9.40
2017-12-02T23:56:37.310Z,10.03
2017-12-02T23:59:04.938Z,8.03
